sensor_id;sensor_type;location;lat;lon;timestamp;P1;durP1;ratioP1;P2;durP2;ratioP2
42110;SDS011;27766;52.174;5.456;2023-03-19T00:00:26;2.33;;;1.30;;
42110;SDS011;27766;52.174;5.456;2023-03-19T00:02:54;1.77;;;1.13;;
42110;SDS011;27766;52.174;5.456;2023-03-19T00:05:21;2.25;;;1.58;;
42110;SDS011;27766;52.174;5.456;2023-03-19T00:07:48;5.18;;;1.88;;
42110;SDS011;27766;52.174;5.456;2023-03-19T00:10:15;2.60;;;1.60;;
42110;SDS011;27766;52.174;5.456;2023-03-19T00:12:42;3.08;;;1.67;;
42110;SDS011;27766;52.174;5.456;2023-03-19T00:15:10;2.45;;;1.60;;
42110;SDS011;27766;52.174;5.456;2023-03-19T00:17:40;3.72;;;1.95;;
42110;SDS011;27766;52.174;5.456;2023-03-19T00:20:09;3.20;;;1.83;;
42110;SDS011;27766;52.174;5.456;2023-03-19T00:22:38;4.28;;;1.75;;
42110;SDS011;27766;52.174;5.456;2023-03-19T00:25:06;3.40;;;1.98;;
42110;SDS011;27766;52.174;5.456;2023-03-19T00:27:34;2.65;;;1.73;;
42110;SDS011;27766;52.174;5.456;2023-03-19T00:30:04;2.83;;;2.00;;
42110;SDS011;27766;52.174;5.456;2023-03-19T00:32:31;4.70;;;2.30;;
42110;SDS011;27766;52.174;5.456;2023-03-19T00:34:59;2.75;;;2.30;;
42110;SDS011;27766;52.174;5.456;2023-03-19T00:37:27;2.10;;;1.60;;
42110;SDS011;27766;52.174;5.456;2023-03-19T00:39:55;4.35;;;1.83;;
42110;SDS011;27766;52.174;5.456;2023-03-19T00:42:22;3.75;;;2.00;;
42110;SDS011;27766;52.174;5.456;2023-03-19T00:44:49;3.47;;;2.15;;
42110;SDS011;27766;52.174;5.456;2023-03-19T00:47:17;2.75;;;2.10;;
42110;SDS011;27766;52.174;5.456;2023-03-19T00:49:44;2.55;;;1.95;;
42110;SDS011;27766;52.174;5.456;2023-03-19T00:52:11;4.05;;;2.05;;
42110;SDS011;27766;52.174;5.456;2023-03-19T00:54:38;3.92;;;2.10;;
42110;SDS011;27766;52.174;5.456;2023-03-19T00:57:05;4.75;;;2.00;;
42110;SDS011;27766;52.174;5.456;2023-03-19T00:59:32;4.22;;;2.38;;
42110;SDS011;27766;52.174;5.456;2023-03-19T01:02:00;3.42;;;2.15;;
42110;SDS011;27766;52.174;5.456;2023-03-19T01:04:27;3.00;;;2.33;;
42110;SDS011;27766;52.174;5.456;2023-03-19T01:06:55;4.10;;;2.15;;
42110;SDS011;27766;52.174;5.456;2023-03-19T01:09:24;3.67;;;2.35;;
42110;SDS011;27766;52.174;5.456;2023-03-19T01:11:51;6.90;;;2.17;;
42110;SDS011;27766;52.174;5.456;2023-03-19T01:14:18;3.20;;;2.50;;
42110;SDS011;27766;52.174;5.456;2023-03-19T01:16:45;2.67;;;2.20;;
42110;SDS011;27766;52.174;5.456;2023-03-19T01:19:12;3.00;;;2.20;;
42110;SDS011;27766;52.174;5.456;2023-03-19T01:21:40;7.28;;;3.42;;
42110;SDS011;27766;52.174;5.456;2023-03-19T01:24:11;3.42;;;2.42;;
42110;SDS011;27766;52.174;5.456;2023-03-19T01:26:39;5.18;;;2.63;;
42110;SDS011;27766;52.174;5.456;2023-03-19T01:29:07;5.25;;;2.80;;
42110;SDS011;27766;52.174;5.456;2023-03-19T01:31:35;4.50;;;3.00;;
42110;SDS011;27766;52.174;5.456;2023-03-19T01:34:03;5.93;;;2.70;;
42110;SDS011;27766;52.174;5.456;2023-03-19T01:36:30;3.15;;;2.45;;
42110;SDS011;27766;52.174;5.456;2023-03-19T01:38:58;3.72;;;2.33;;
42110;SDS011;27766;52.174;5.456;2023-03-19T01:41:25;3.22;;;2.63;;
42110;SDS011;27766;52.174;5.456;2023-03-19T01:43:52;8.70;;;3.20;;
42110;SDS011;27766;52.174;5.456;2023-03-19T01:48:56;7.55;;;3.35;;
42110;SDS011;27766;52.174;5.456;2023-03-19T01:51:27;5.55;;;3.05;;
42110;SDS011;27766;52.174;5.456;2023-03-19T01:53:58;5.50;;;2.92;;
42110;SDS011;27766;52.174;5.456;2023-03-19T01:56:29;4.72;;;3.17;;
42110;SDS011;27766;52.174;5.456;2023-03-19T01:59:00;5.30;;;3.95;;
42110;SDS011;27766;52.174;5.456;2023-03-19T02:01:32;6.88;;;3.28;;
42110;SDS011;27766;52.174;5.456;2023-03-19T02:04:03;4.70;;;2.90;;
42110;SDS011;27766;52.174;5.456;2023-03-19T02:06:31;3.83;;;3.15;;
42110;SDS011;27766;52.174;5.456;2023-03-19T02:09:00;4.93;;;3.30;;
42110;SDS011;27766;52.174;5.456;2023-03-19T02:11:28;3.85;;;3.30;;
42110;SDS011;27766;52.174;5.456;2023-03-19T02:13:56;4.55;;;3.50;;
42110;SDS011;27766;52.174;5.456;2023-03-19T02:16:24;3.92;;;3.42;;
42110;SDS011;27766;52.174;5.456;2023-03-19T02:18:51;6.55;;;4.07;;
42110;SDS011;27766;52.174;5.456;2023-03-19T02:21:19;5.68;;;3.97;;
42110;SDS011;27766;52.174;5.456;2023-03-19T02:26:23;4.25;;;3.40;;
42110;SDS011;27766;52.174;5.456;2023-03-19T02:28:54;5.30;;;3.50;;
42110;SDS011;27766;52.174;5.456;2023-03-19T02:31:21;4.13;;;3.60;;
42110;SDS011;27766;52.174;5.456;2023-03-19T02:33:59;3.78;;;3.30;;
42110;SDS011;27766;52.174;5.456;2023-03-19T02:36:29;4.25;;;3.30;;
42110;SDS011;27766;52.174;5.456;2023-03-19T02:39:04;4.88;;;3.78;;
42110;SDS011;27766;52.174;5.456;2023-03-19T02:41:34;5.20;;;3.65;;
42110;SDS011;27766;52.174;5.456;2023-03-19T02:44:04;6.93;;;3.78;;
42110;SDS011;27766;52.174;5.456;2023-03-19T02:46:33;5.70;;;3.85;;
42110;SDS011;27766;52.174;5.456;2023-03-19T02:49:00;5.20;;;3.42;;
42110;SDS011;27766;52.174;5.456;2023-03-19T02:51:27;4.88;;;3.72;;
42110;SDS011;27766;52.174;5.456;2023-03-19T02:53:54;7.32;;;4.05;;
42110;SDS011;27766;52.174;5.456;2023-03-19T02:56:21;4.50;;;3.50;;
42110;SDS011;27766;52.174;5.456;2023-03-19T02:58:48;10.27;;;3.88;;
42110;SDS011;27766;52.174;5.456;2023-03-19T03:01:15;4.38;;;3.30;;
42110;SDS011;27766;52.174;5.456;2023-03-19T03:03:44;5.13;;;3.95;;
42110;SDS011;27766;52.174;5.456;2023-03-19T03:06:11;6.43;;;4.07;;
42110;SDS011;27766;52.174;5.456;2023-03-19T03:08:39;6.18;;;3.83;;
42110;SDS011;27766;52.174;5.456;2023-03-19T03:11:06;8.48;;;4.32;;
42110;SDS011;27766;52.174;5.456;2023-03-19T03:13:34;5.80;;;4.30;;
42110;SDS011;27766;52.174;5.456;2023-03-19T03:16:01;6.22;;;4.53;;
42110;SDS011;27766;52.174;5.456;2023-03-19T03:18:29;5.32;;;4.30;;
42110;SDS011;27766;52.174;5.456;2023-03-19T03:20:56;5.35;;;4.10;;
42110;SDS011;27766;52.174;5.456;2023-03-19T03:23:24;4.97;;;4.22;;
42110;SDS011;27766;52.174;5.456;2023-03-19T03:25:52;5.47;;;4.47;;
42110;SDS011;27766;52.174;5.456;2023-03-19T03:28:19;6.10;;;4.53;;
42110;SDS011;27766;52.174;5.456;2023-03-19T03:30:46;5.55;;;4.47;;
42110;SDS011;27766;52.174;5.456;2023-03-19T03:33:13;6.72;;;4.57;;
42110;SDS011;27766;52.174;5.456;2023-03-19T03:35:41;9.57;;;5.60;;
42110;SDS011;27766;52.174;5.456;2023-03-19T03:38:08;9.75;;;6.43;;
42110;SDS011;27766;52.174;5.456;2023-03-19T03:40:35;9.30;;;6.65;;
42110;SDS011;27766;52.174;5.456;2023-03-19T03:43:03;6.80;;;6.10;;
42110;SDS011;27766;52.174;5.456;2023-03-19T03:45:30;7.13;;;6.43;;
42110;SDS011;27766;52.174;5.456;2023-03-19T03:47:57;8.77;;;6.63;;
42110;SDS011;27766;52.174;5.456;2023-03-19T03:50:26;9.25;;;6.72;;
42110;SDS011;27766;52.174;5.456;2023-03-19T03:52:53;9.90;;;7.50;;
42110;SDS011;27766;52.174;5.456;2023-03-19T03:55:20;12.13;;;7.63;;
42110;SDS011;27766;52.174;5.456;2023-03-19T03:57:47;13.57;;;7.78;;
42110;SDS011;27766;52.174;5.456;2023-03-19T04:00:15;9.13;;;8.00;;
42110;SDS011;27766;52.174;5.456;2023-03-19T04:02:42;9.07;;;7.28;;
42110;SDS011;27766;52.174;5.456;2023-03-19T04:05:09;12.95;;;8.07;;
42110;SDS011;27766;52.174;5.456;2023-03-19T04:07:36;14.75;;;8.98;;
42110;SDS011;27766;52.174;5.456;2023-03-19T04:10:04;11.57;;;9.38;;
42110;SDS011;27766;52.174;5.456;2023-03-19T04:12:31;11.65;;;9.48;;
42110;SDS011;27766;52.174;5.456;2023-03-19T04:14:59;9.73;;;8.52;;
42110;SDS011;27766;52.174;5.456;2023-03-19T04:17:26;11.50;;;9.15;;
42110;SDS011;27766;52.174;5.456;2023-03-19T04:19:55;10.90;;;8.70;;
42110;SDS011;27766;52.174;5.456;2023-03-19T04:22:22;11.68;;;8.85;;
42110;SDS011;27766;52.174;5.456;2023-03-19T04:24:49;10.88;;;9.43;;
42110;SDS011;27766;52.174;5.456;2023-03-19T04:27:16;13.15;;;9.13;;
42110;SDS011;27766;52.174;5.456;2023-03-19T04:29:43;11.00;;;9.63;;
42110;SDS011;27766;52.174;5.456;2023-03-19T04:32:10;12.95;;;9.75;;
42110;SDS011;27766;52.174;5.456;2023-03-19T04:34:37;12.52;;;9.95;;
42110;SDS011;27766;52.174;5.456;2023-03-19T04:37:04;16.48;;;9.65;;
42110;SDS011;27766;52.174;5.456;2023-03-19T04:39:31;14.85;;;9.90;;
42110;SDS011;27766;52.174;5.456;2023-03-19T04:41:59;12.65;;;9.65;;
42110;SDS011;27766;52.174;5.456;2023-03-19T04:44:26;13.73;;;9.10;;
42110;SDS011;27766;52.174;5.456;2023-03-19T04:46:54;14.95;;;10.07;;
42110;SDS011;27766;52.174;5.456;2023-03-19T04:49:21;12.82;;;10.55;;
42110;SDS011;27766;52.174;5.456;2023-03-19T04:51:48;14.95;;;10.32;;
42110;SDS011;27766;52.174;5.456;2023-03-19T04:54:15;12.52;;;10.50;;
42110;SDS011;27766;52.174;5.456;2023-03-19T04:56:42;12.68;;;10.60;;
42110;SDS011;27766;52.174;5.456;2023-03-19T04:59:09;12.68;;;10.15;;
42110;SDS011;27766;52.174;5.456;2023-03-19T05:01:36;14.63;;;10.57;;
42110;SDS011;27766;52.174;5.456;2023-03-19T05:04:04;12.75;;;9.93;;
42110;SDS011;27766;52.174;5.456;2023-03-19T05:06:31;13.85;;;10.35;;
42110;SDS011;27766;52.174;5.456;2023-03-19T05:08:58;14.90;;;10.60;;
42110;SDS011;27766;52.174;5.456;2023-03-19T05:11:30;13.85;;;11.00;;
42110;SDS011;27766;52.174;5.456;2023-03-19T05:13:57;12.95;;;9.88;;
42110;SDS011;27766;52.174;5.456;2023-03-19T05:16:24;14.07;;;10.68;;
42110;SDS011;27766;52.174;5.456;2023-03-19T05:18:51;14.98;;;11.15;;
42110;SDS011;27766;52.174;5.456;2023-03-19T05:21:18;14.27;;;10.85;;
42110;SDS011;27766;52.174;5.456;2023-03-19T05:23:46;13.48;;;10.02;;
42110;SDS011;27766;52.174;5.456;2023-03-19T05:26:17;13.93;;;11.18;;
42110;SDS011;27766;52.174;5.456;2023-03-19T05:28:44;19.27;;;12.00;;
42110;SDS011;27766;52.174;5.456;2023-03-19T05:31:12;18.75;;;11.68;;
42110;SDS011;27766;52.174;5.456;2023-03-19T05:33:39;16.25;;;11.85;;
42110;SDS011;27766;52.174;5.456;2023-03-19T05:36:06;12.65;;;11.05;;
42110;SDS011;27766;52.174;5.456;2023-03-19T05:38:33;17.75;;;11.05;;
42110;SDS011;27766;52.174;5.456;2023-03-19T05:41:02;16.67;;;12.02;;
42110;SDS011;27766;52.174;5.456;2023-03-19T05:43:30;15.40;;;11.18;;
42110;SDS011;27766;52.174;5.456;2023-03-19T05:45:58;18.00;;;12.60;;
42110;SDS011;27766;52.174;5.456;2023-03-19T05:48:25;17.83;;;11.85;;
42110;SDS011;27766;52.174;5.456;2023-03-19T05:50:53;16.80;;;11.73;;
42110;SDS011;27766;52.174;5.456;2023-03-19T05:53:20;16.58;;;11.80;;
42110;SDS011;27766;52.174;5.456;2023-03-19T05:55:48;16.85;;;12.40;;
42110;SDS011;27766;52.174;5.456;2023-03-19T05:58:15;17.92;;;12.13;;
42110;SDS011;27766;52.174;5.456;2023-03-19T06:00:42;17.75;;;12.48;;
42110;SDS011;27766;52.174;5.456;2023-03-19T06:03:09;14.95;;;11.98;;
42110;SDS011;27766;52.174;5.456;2023-03-19T06:05:37;18.88;;;12.20;;
42110;SDS011;27766;52.174;5.456;2023-03-19T06:08:04;22.40;;;13.02;;
42110;SDS011;27766;52.174;5.456;2023-03-19T06:10:33;18.00;;;13.27;;
42110;SDS011;27766;52.174;5.456;2023-03-19T06:13:02;21.17;;;12.60;;
42110;SDS011;27766;52.174;5.456;2023-03-19T06:15:31;17.95;;;13.23;;
42110;SDS011;27766;52.174;5.456;2023-03-19T06:17:58;16.45;;;12.13;;
42110;SDS011;27766;52.174;5.456;2023-03-19T06:20:26;16.55;;;12.18;;
42110;SDS011;27766;52.174;5.456;2023-03-19T06:22:53;13.77;;;12.18;;
42110;SDS011;27766;52.174;5.456;2023-03-19T06:25:20;17.10;;;13.23;;
42110;SDS011;27766;52.174;5.456;2023-03-19T06:27:47;18.92;;;12.80;;
42110;SDS011;27766;52.174;5.456;2023-03-19T06:30:15;18.50;;;13.10;;
42110;SDS011;27766;52.174;5.456;2023-03-19T06:32:42;18.13;;;13.65;;
42110;SDS011;27766;52.174;5.456;2023-03-19T06:35:09;19.55;;;13.75;;
42110;SDS011;27766;52.174;5.456;2023-03-19T06:37:36;15.45;;;12.35;;
42110;SDS011;27766;52.174;5.456;2023-03-19T06:40:04;19.10;;;12.73;;
42110;SDS011;27766;52.174;5.456;2023-03-19T06:42:32;22.23;;;14.32;;
42110;SDS011;27766;52.174;5.456;2023-03-19T06:44:59;19.20;;;13.70;;
42110;SDS011;27766;52.174;5.456;2023-03-19T06:47:26;22.27;;;14.35;;
42110;SDS011;27766;52.174;5.456;2023-03-19T06:49:54;19.15;;;13.82;;
42110;SDS011;27766;52.174;5.456;2023-03-19T06:52:22;19.33;;;13.90;;
42110;SDS011;27766;52.174;5.456;2023-03-19T06:54:49;18.17;;;12.80;;
42110;SDS011;27766;52.174;5.456;2023-03-19T06:57:16;18.60;;;14.25;;
42110;SDS011;27766;52.174;5.456;2023-03-19T06:59:43;20.13;;;14.90;;
42110;SDS011;27766;52.174;5.456;2023-03-19T07:02:11;21.17;;;14.23;;
42110;SDS011;27766;52.174;5.456;2023-03-19T07:04:38;18.48;;;14.95;;
42110;SDS011;27766;52.174;5.456;2023-03-19T07:07:05;23.38;;;15.15;;
42110;SDS011;27766;52.174;5.456;2023-03-19T07:09:32;19.73;;;15.40;;
42110;SDS011;27766;52.174;5.456;2023-03-19T07:12:00;24.73;;;16.05;;
42110;SDS011;27766;52.174;5.456;2023-03-19T07:14:27;21.23;;;15.73;;
42110;SDS011;27766;52.174;5.456;2023-03-19T07:16:54;22.23;;;15.73;;
42110;SDS011;27766;52.174;5.456;2023-03-19T07:19:21;23.08;;;16.05;;
42110;SDS011;27766;52.174;5.456;2023-03-19T07:21:48;26.10;;;18.20;;
42110;SDS011;27766;52.174;5.456;2023-03-19T07:24:16;27.10;;;18.02;;
42110;SDS011;27766;52.174;5.456;2023-03-19T07:26:43;25.67;;;19.58;;
42110;SDS011;27766;52.174;5.456;2023-03-19T07:29:10;25.02;;;18.33;;
42110;SDS011;27766;52.174;5.456;2023-03-19T07:31:38;27.60;;;20.08;;
42110;SDS011;27766;52.174;5.456;2023-03-19T07:34:05;34.55;;;21.38;;
42110;SDS011;27766;52.174;5.456;2023-03-19T07:36:32;35.53;;;23.83;;
42110;SDS011;27766;52.174;5.456;2023-03-19T07:38:59;37.53;;;24.67;;
42110;SDS011;27766;52.174;5.456;2023-03-19T07:41:27;45.70;;;28.95;;
42110;SDS011;27766;52.174;5.456;2023-03-19T07:43:54;45.67;;;28.35;;
42110;SDS011;27766;52.174;5.456;2023-03-19T07:46:21;44.95;;;28.08;;
42110;SDS011;27766;52.174;5.456;2023-03-19T07:48:49;45.28;;;28.30;;
42110;SDS011;27766;52.174;5.456;2023-03-19T07:51:16;39.60;;;27.17;;
42110;SDS011;27766;52.174;5.456;2023-03-19T07:53:43;44.60;;;26.58;;
42110;SDS011;27766;52.174;5.456;2023-03-19T07:56:11;43.58;;;26.33;;
42110;SDS011;27766;52.174;5.456;2023-03-19T07:58:38;34.58;;;23.75;;
42110;SDS011;27766;52.174;5.456;2023-03-19T08:01:06;35.58;;;23.92;;
42110;SDS011;27766;52.174;5.456;2023-03-19T08:03:33;40.67;;;22.88;;
42110;SDS011;27766;52.174;5.456;2023-03-19T08:06:01;39.08;;;24.10;;
42110;SDS011;27766;52.174;5.456;2023-03-19T08:08:29;35.80;;;23.83;;
42110;SDS011;27766;52.174;5.456;2023-03-19T08:10:56;33.22;;;23.25;;
42110;SDS011;27766;52.174;5.456;2023-03-19T08:13:24;37.17;;;22.75;;
42110;SDS011;27766;52.174;5.456;2023-03-19T08:15:52;28.85;;;21.95;;
42110;SDS011;27766;52.174;5.456;2023-03-19T08:18:19;36.20;;;20.95;;
42110;SDS011;27766;52.174;5.456;2023-03-19T08:20:46;31.15;;;21.48;;
42110;SDS011;27766;52.174;5.456;2023-03-19T08:23:14;33.70;;;20.73;;
42110;SDS011;27766;52.174;5.456;2023-03-19T08:25:41;33.83;;;20.20;;
42110;SDS011;27766;52.174;5.456;2023-03-19T08:28:09;27.33;;;19.00;;
42110;SDS011;27766;52.174;5.456;2023-03-19T08:30:36;30.95;;;18.10;;
42110;SDS011;27766;52.174;5.456;2023-03-19T08:33:04;32.65;;;20.13;;
42110;SDS011;27766;52.174;5.456;2023-03-19T08:35:32;32.28;;;20.42;;
42110;SDS011;27766;52.174;5.456;2023-03-19T08:37:59;27.70;;;19.92;;
42110;SDS011;27766;52.174;5.456;2023-03-19T08:40:26;28.35;;;20.15;;
42110;SDS011;27766;52.174;5.456;2023-03-19T08:42:53;27.73;;;19.75;;
42110;SDS011;27766;52.174;5.456;2023-03-19T08:45:21;27.58;;;20.48;;
42110;SDS011;27766;52.174;5.456;2023-03-19T08:47:48;30.77;;;19.95;;
42110;SDS011;27766;52.174;5.456;2023-03-19T08:50:16;25.30;;;18.40;;
42110;SDS011;27766;52.174;5.456;2023-03-19T08:52:43;26.20;;;17.45;;
42110;SDS011;27766;52.174;5.456;2023-03-19T08:55:11;28.05;;;17.00;;
42110;SDS011;27766;52.174;5.456;2023-03-19T08:57:38;22.10;;;15.82;;
42110;SDS011;27766;52.174;5.456;2023-03-19T09:00:05;24.70;;;15.82;;
42110;SDS011;27766;52.174;5.456;2023-03-19T09:02:33;23.88;;;16.02;;
42110;SDS011;27766;52.174;5.456;2023-03-19T09:05:01;21.65;;;15.80;;
42110;SDS011;27766;52.174;5.456;2023-03-19T09:07:28;19.95;;;14.80;;
42110;SDS011;27766;52.174;5.456;2023-03-19T09:09:56;27.17;;;16.65;;
42110;SDS011;27766;52.174;5.456;2023-03-19T09:12:23;24.13;;;15.73;;
42110;SDS011;27766;52.174;5.456;2023-03-19T09:14:50;23.02;;;16.25;;
42110;SDS011;27766;52.174;5.456;2023-03-19T09:17:17;23.35;;;14.90;;
42110;SDS011;27766;52.174;5.456;2023-03-19T09:19:44;18.88;;;14.02;;
42110;SDS011;27766;52.174;5.456;2023-03-19T09:22:11;26.15;;;15.38;;
42110;SDS011;27766;52.174;5.456;2023-03-19T09:24:38;19.42;;;14.25;;
42110;SDS011;27766;52.174;5.456;2023-03-19T09:27:06;19.13;;;13.18;;
42110;SDS011;27766;52.174;5.456;2023-03-19T09:29:33;18.83;;;13.85;;
42110;SDS011;27766;52.174;5.456;2023-03-19T09:32:00;25.33;;;18.25;;
42110;SDS011;27766;52.174;5.456;2023-03-19T09:34:28;19.13;;;13.32;;
42110;SDS011;27766;52.174;5.456;2023-03-19T09:36:56;24.90;;;16.20;;
42110;SDS011;27766;52.174;5.456;2023-03-19T09:39:23;20.15;;;14.40;;
42110;SDS011;27766;52.174;5.456;2023-03-19T09:44:30;18.27;;;13.32;;
42110;SDS011;27766;52.174;5.456;2023-03-19T09:47:06;19.52;;;14.60;;
42110;SDS011;27766;52.174;5.456;2023-03-19T09:49:49;25.83;;;14.40;;
42110;SDS011;27766;52.174;5.456;2023-03-19T09:55:04;20.60;;;14.93;;
42110;SDS011;27766;52.174;5.456;2023-03-19T09:57:59;24.70;;;17.13;;
42110;SDS011;27766;52.174;5.456;2023-03-19T10:00:31;26.73;;;17.92;;
42110;SDS011;27766;52.174;5.456;2023-03-19T10:05:44;18.40;;;13.90;;
42110;SDS011;27766;52.174;5.456;2023-03-19T10:08:36;20.90;;;14.80;;
42110;SDS011;27766;52.174;5.456;2023-03-19T10:14:34;18.25;;;14.73;;
42110;SDS011;27766;52.174;5.456;2023-03-19T10:17:09;21.55;;;15.50;;
42110;SDS011;27766;52.174;5.456;2023-03-19T10:22:14;20.77;;;14.70;;
42110;SDS011;27766;52.174;5.456;2023-03-19T10:24:47;18.90;;;12.88;;
42110;SDS011;27766;52.174;5.456;2023-03-19T10:27:17;21.80;;;14.50;;
42110;SDS011;27766;52.174;5.456;2023-03-19T10:29:47;23.52;;;15.10;;
42110;SDS011;27766;52.174;5.456;2023-03-19T10:32:16;18.58;;;14.18;;
42110;SDS011;27766;52.174;5.456;2023-03-19T10:35:01;23.60;;;14.85;;
42110;SDS011;27766;52.174;5.456;2023-03-19T10:37:42;21.17;;;13.98;;
42110;SDS011;27766;52.174;5.456;2023-03-19T10:43:04;20.93;;;13.87;;
42110;SDS011;27766;52.174;5.456;2023-03-19T10:45:40;21.52;;;15.15;;
42110;SDS011;27766;52.174;5.456;2023-03-19T10:48:11;22.35;;;14.02;;
42110;SDS011;27766;52.174;5.456;2023-03-19T10:55:43;24.65;;;15.07;;
42110;SDS011;27766;52.174;5.456;2023-03-19T11:00:44;19.30;;;13.60;;
42110;SDS011;27766;52.174;5.456;2023-03-19T11:03:29;23.27;;;15.48;;
42110;SDS011;27766;52.174;5.456;2023-03-19T11:06:06;19.73;;;13.15;;
42110;SDS011;27766;52.174;5.456;2023-03-19T11:08:34;19.35;;;13.75;;
42110;SDS011;27766;52.174;5.456;2023-03-19T11:11:03;21.30;;;13.32;;
42110;SDS011;27766;52.174;5.456;2023-03-19T11:13:32;19.20;;;14.30;;
42110;SDS011;27766;52.174;5.456;2023-03-19T11:16:01;21.02;;;12.57;;
42110;SDS011;27766;52.174;5.456;2023-03-19T11:18:34;20.60;;;13.02;;
42110;SDS011;27766;52.174;5.456;2023-03-19T11:21:06;17.20;;;12.65;;
42110;SDS011;27766;52.174;5.456;2023-03-19T11:23:46;19.05;;;11.65;;
42110;SDS011;27766;52.174;5.456;2023-03-19T11:26:26;18.50;;;12.52;;
42110;SDS011;27766;52.174;5.456;2023-03-19T11:29:00;21.83;;;14.18;;
42110;SDS011;27766;52.174;5.456;2023-03-19T11:31:32;19.63;;;14.05;;
42110;SDS011;27766;52.174;5.456;2023-03-19T11:34:23;22.73;;;14.45;;
42110;SDS011;27766;52.174;5.456;2023-03-19T11:42:34;30.23;;;15.98;;
42110;SDS011;27766;52.174;5.456;2023-03-19T11:56:31;22.00;;;16.45;;
42110;SDS011;27766;52.174;5.456;2023-03-19T12:10:57;21.67;;;13.48;;
42110;SDS011;27766;52.174;5.456;2023-03-19T12:16:08;21.25;;;13.18;;
42110;SDS011;27766;52.174;5.456;2023-03-19T12:22:15;19.38;;;12.95;;
42110;SDS011;27766;52.174;5.456;2023-03-19T12:27:34;20.80;;;13.23;;
42110;SDS011;27766;52.174;5.456;2023-03-19T12:32:45;18.20;;;12.03;;
42110;SDS011;27766;52.174;5.456;2023-03-19T12:35:26;23.83;;;14.15;;
42110;SDS011;27766;52.174;5.456;2023-03-19T12:38:19;22.95;;;14.05;;
42110;SDS011;27766;52.174;5.456;2023-03-19T12:41:05;18.45;;;14.13;;
42110;SDS011;27766;52.174;5.456;2023-03-19T12:46:24;20.65;;;13.32;;
42110;SDS011;27766;52.174;5.456;2023-03-19T12:51:58;22.60;;;14.27;;
42110;SDS011;27766;52.174;5.456;2023-03-19T12:54:34;21.80;;;12.52;;
42110;SDS011;27766;52.174;5.456;2023-03-19T12:57:08;21.58;;;13.35;;
42110;SDS011;27766;52.174;5.456;2023-03-19T12:59:52;18.73;;;12.40;;
42110;SDS011;27766;52.174;5.456;2023-03-19T13:02:31;18.33;;;11.77;;
42110;SDS011;27766;52.174;5.456;2023-03-19T13:10:45;20.05;;;12.38;;
42110;SDS011;27766;52.174;5.456;2023-03-19T13:15:53;16.10;;;10.98;;
42110;SDS011;27766;52.174;5.456;2023-03-19T13:21:25;16.50;;;10.82;;
42110;SDS011;27766;52.174;5.456;2023-03-19T13:26:51;21.33;;;11.65;;
42110;SDS011;27766;52.174;5.456;2023-03-19T13:29:22;24.13;;;11.63;;
42110;SDS011;27766;52.174;5.456;2023-03-19T13:31:51;16.20;;;10.48;;
42110;SDS011;27766;52.174;5.456;2023-03-19T13:34:26;16.92;;;9.93;;
42110;SDS011;27766;52.174;5.456;2023-03-19T13:37:00;17.08;;;10.35;;
42110;SDS011;27766;52.174;5.456;2023-03-19T13:39:36;21.13;;;11.07;;
42110;SDS011;27766;52.174;5.456;2023-03-19T13:47:39;18.80;;;10.32;;
42110;SDS011;27766;52.174;5.456;2023-03-19T13:52:45;16.17;;;9.70;;
42110;SDS011;27766;52.174;5.456;2023-03-19T13:55:20;14.98;;;9.82;;
42110;SDS011;27766;52.174;5.456;2023-03-19T14:01:04;14.02;;;10.25;;
42110;SDS011;27766;52.174;5.456;2023-03-19T14:03:33;18.92;;;10.88;;
42110;SDS011;27766;52.174;5.456;2023-03-19T14:06:02;17.02;;;11.35;;
42110;SDS011;27766;52.174;5.456;2023-03-19T14:08:41;14.55;;;9.35;;
42110;SDS011;27766;52.174;5.456;2023-03-19T14:11:20;24.98;;;10.25;;
42110;SDS011;27766;52.174;5.456;2023-03-19T14:13:58;16.90;;;9.43;;
42110;SDS011;27766;52.174;5.456;2023-03-19T14:16:31;14.60;;;9.38;;
42110;SDS011;27766;52.174;5.456;2023-03-19T14:19:01;18.23;;;10.52;;
42110;SDS011;27766;52.174;5.456;2023-03-19T14:21:32;16.52;;;10.15;;
42110;SDS011;27766;52.174;5.456;2023-03-19T14:24:20;15.00;;;9.63;;
42110;SDS011;27766;52.174;5.456;2023-03-19T14:27:31;22.35;;;10.38;;
42110;SDS011;27766;52.174;5.456;2023-03-19T14:30:06;17.45;;;10.65;;
42110;SDS011;27766;52.174;5.456;2023-03-19T14:32:36;18.75;;;10.88;;
42110;SDS011;27766;52.174;5.456;2023-03-19T14:35:06;19.95;;;11.80;;
42110;SDS011;27766;52.174;5.456;2023-03-19T14:45:45;15.75;;;10.77;;
42110;SDS011;27766;52.174;5.456;2023-03-19T14:57:18;12.45;;;9.25;;
42110;SDS011;27766;52.174;5.456;2023-03-19T14:59:52;18.70;;;10.65;;
42110;SDS011;27766;52.174;5.456;2023-03-19T15:05:03;20.08;;;11.00;;
42110;SDS011;27766;52.174;5.456;2023-03-19T15:07:36;18.70;;;10.45;;
42110;SDS011;27766;52.174;5.456;2023-03-19T15:10:28;18.08;;;11.25;;
42110;SDS011;27766;52.174;5.456;2023-03-19T15:18:16;21.40;;;10.63;;
42110;SDS011;27766;52.174;5.456;2023-03-19T15:20:49;16.92;;;11.52;;
42110;SDS011;27766;52.174;5.456;2023-03-19T15:23:23;18.25;;;11.32;;
42110;SDS011;27766;52.174;5.456;2023-03-19T15:25:58;19.08;;;11.68;;
42110;SDS011;27766;52.174;5.456;2023-03-19T15:28:31;20.87;;;12.13;;
42110;SDS011;27766;52.174;5.456;2023-03-19T15:31:04;21.33;;;12.15;;
42110;SDS011;27766;52.174;5.456;2023-03-19T15:33:52;27.10;;;12.00;;
42110;SDS011;27766;52.174;5.456;2023-03-19T15:36:23;17.70;;;10.48;;
42110;SDS011;27766;52.174;5.456;2023-03-19T15:39:02;18.60;;;10.57;;
42110;SDS011;27766;52.174;5.456;2023-03-19T15:41:31;15.23;;;9.80;;
42110;SDS011;27766;52.174;5.456;2023-03-19T15:44:03;15.90;;;10.07;;
42110;SDS011;27766;52.174;5.456;2023-03-19T15:46:33;16.40;;;10.70;;
42110;SDS011;27766;52.174;5.456;2023-03-19T15:49:13;22.52;;;11.27;;
42110;SDS011;27766;52.174;5.456;2023-03-19T15:51:41;16.17;;;11.32;;
42110;SDS011;27766;52.174;5.456;2023-03-19T15:54:14;25.45;;;11.00;;
42110;SDS011;27766;52.174;5.456;2023-03-19T15:56:42;17.00;;;11.27;;
42110;SDS011;27766;52.174;5.456;2023-03-19T15:59:09;14.60;;;10.90;;
42110;SDS011;27766;52.174;5.456;2023-03-19T16:01:36;22.17;;;12.05;;
42110;SDS011;27766;52.174;5.456;2023-03-19T16:04:05;23.52;;;12.07;;
42110;SDS011;27766;52.174;5.456;2023-03-19T16:06:37;25.33;;;14.15;;
42110;SDS011;27766;52.174;5.456;2023-03-19T16:09:25;23.63;;;11.93;;
42110;SDS011;27766;52.174;5.456;2023-03-19T16:11:56;18.80;;;11.73;;
42110;SDS011;27766;52.174;5.456;2023-03-19T16:14:24;21.60;;;13.90;;
42110;SDS011;27766;52.174;5.456;2023-03-19T16:17:14;21.65;;;12.57;;
42110;SDS011;27766;52.174;5.456;2023-03-19T16:22:16;23.30;;;12.47;;
42110;SDS011;27766;52.174;5.456;2023-03-19T16:24:47;21.63;;;12.70;;
42110;SDS011;27766;52.174;5.456;2023-03-19T16:27:20;18.00;;;12.90;;
42110;SDS011;27766;52.174;5.456;2023-03-19T16:30:13;23.30;;;13.18;;
42110;SDS011;27766;52.174;5.456;2023-03-19T16:33:00;17.60;;;12.57;;
42110;SDS011;27766;52.174;5.456;2023-03-19T16:35:30;17.33;;;13.02;;
42110;SDS011;27766;52.174;5.456;2023-03-19T16:38:09;22.58;;;14.23;;
42110;SDS011;27766;52.174;5.456;2023-03-19T16:40:39;20.25;;;13.40;;
42110;SDS011;27766;52.174;5.456;2023-03-19T16:43:15;19.65;;;13.00;;
42110;SDS011;27766;52.174;5.456;2023-03-19T16:45:51;22.00;;;12.73;;
42110;SDS011;27766;52.174;5.456;2023-03-19T16:48:31;26.75;;;13.00;;
42110;SDS011;27766;52.174;5.456;2023-03-19T16:50:59;19.45;;;13.07;;
42110;SDS011;27766;52.174;5.456;2023-03-19T16:53:29;28.15;;;13.32;;